createdAt,value
2018-05-29T00:02:06.345Z,98427.36
2018-05-29T00:04:33.858Z,98420.81
2018-05-29T00:07:01.415Z,98422.03
2018-05-29T00:09:29.018Z,98419.84
2018-05-29T00:11:56.543Z,98421.20
2018-05-29T00:14:24.050Z,98420.25
2018-05-29T00:16:51.550Z,98419.72
2018-05-29T00:19:19.113Z,98423.14
2018-05-29T00:21:46.586Z,98422.06
2018-05-29T00:24:14.070Z,98420.12
2018-05-29T00:26:41.586Z,98424.23
2018-05-29T00:29:09.178Z,98422.61
2018-05-29T00:31:36.706Z,98427.73
2018-05-29T00:34:04.166Z,98428.16
2018-05-29T00:36:31.650Z,98433.38
2018-05-29T00:38:59.123Z,98426.73
2018-05-29T00:41:26.669Z,98418.88
2018-05-29T00:43:54.210Z,98415.50
2018-05-29T00:46:21.696Z,98415.88
2018-05-29T00:48:49.150Z,98419.56
2018-05-29T00:51:16.675Z,98424.54
2018-05-29T00:53:44.142Z,98418.11
2018-05-29T00:56:11.690Z,98412.61
2018-05-29T00:58:39.171Z,98424.54
2018-05-29T01:01:06.664Z,98425.41
2018-05-29T01:03:34.142Z,98436.36
2018-05-29T01:06:01.729Z,98428.36
2018-05-29T01:08:29.198Z,98429.33
2018-05-29T01:10:56.688Z,98430.11
2018-05-29T01:13:24.214Z,98427.59
2018-05-29T01:15:51.698Z,98428.84
2018-05-29T01:18:19.218Z,98435.89
2018-05-29T01:20:46.711Z,98439.84
2018-05-29T01:23:14.181Z,98440.34
2018-05-29T01:25:41.698Z,98444.13
2018-05-29T01:28:09.160Z,98447.33
2018-05-29T01:30:36.734Z,98454.64
2018-05-29T01:33:04.315Z,98457.28
2018-05-29T01:35:31.805Z,98459.08
2018-05-29T01:37:59.305Z,98459.77
2018-05-29T01:40:26.795Z,98462.22
2018-05-29T01:42:54.310Z,98469.01
2018-05-29T01:45:21.794Z,98464.75
2018-05-29T01:47:49.258Z,98460.06
2018-05-29T01:50:16.747Z,98465.70
2018-05-29T01:52:44.226Z,98464.07
2018-05-29T01:55:11.798Z,98463.59
2018-05-29T01:57:39.278Z,98467.53
2018-05-29T02:00:06.857Z,98467.50
2018-05-29T02:02:34.346Z,98467.53
2018-05-29T02:05:01.834Z,98462.10
2018-05-29T02:07:29.402Z,98457.53
2018-05-29T02:09:56.860Z,98461.48
2018-05-29T02:12:24.411Z,98465.89
2018-05-29T02:14:51.894Z,98468.02
2018-05-29T02:17:19.474Z,98469.96
2018-05-29T02:19:46.938Z,98476.19
2018-05-29T02:22:14.446Z,98481.02
2018-05-29T02:24:42.007Z,98480.44
2018-05-29T02:27:09.574Z,98479.03
2018-05-29T02:29:37.033Z,98471.59
2018-05-29T02:32:04.527Z,98466.09
2018-05-29T02:34:32.062Z,98470.48
2018-05-29T02:36:59.563Z,98463.14
2018-05-29T02:39:27.062Z,98472.09
2018-05-29T02:41:54.547Z,98464.37
2018-05-29T02:44:22.180Z,98460.44
2018-05-29T02:46:49.670Z,98456.76
2018-05-29T02:49:17.239Z,98455.27
2018-05-29T02:51:44.760Z,98443.30
2018-05-29T02:54:12.320Z,98445.61
2018-05-29T02:56:39.814Z,98460.85
2018-05-29T02:59:07.283Z,98463.63
2018-05-29T03:01:34.890Z,98471.08
2018-05-29T03:04:02.355Z,98470.41
2018-05-29T03:06:29.864Z,98477.37
2018-05-29T03:08:57.375Z,98475.98
2018-05-29T03:11:24.864Z,98480.15
2018-05-29T03:13:52.332Z,98489.16
2018-05-29T03:16:19.853Z,98487.07
2018-05-29T03:18:47.319Z,98499.63
2018-05-29T03:21:14.806Z,98496.56
2018-05-29T03:23:42.427Z,98510.91
2018-05-29T03:26:09.983Z,98516.75
2018-05-29T03:28:37.446Z,98519.17
2018-05-29T03:31:04.932Z,98522.23
2018-05-29T03:33:32.411Z,98525.29
2018-05-29T03:35:59.947Z,98527.59
2018-05-29T03:38:27.438Z,98537.18
2018-05-29T03:40:54.903Z,98540.73
2018-05-29T03:43:22.389Z,98538.61
2018-05-29T03:45:49.947Z,98532.84
2018-05-29T03:48:17.509Z,98547.27
2018-05-29T03:50:44.975Z,98552.07
2018-05-29T03:53:12.462Z,98559.83
2018-05-29T03:55:39.931Z,98557.12
2018-05-29T03:58:07.483Z,98558.60
2018-05-29T04:00:34.962Z,98566.39
2018-05-29T04:03:02.463Z,98558.31
2018-05-29T04:05:29.946Z,98553.31
2018-05-29T04:07:57.520Z,98550.66
2018-05-29T04:10:25.027Z,98552.42
2018-05-29T04:12:52.515Z,98552.69
2018-05-29T04:15:20.060Z,98553.73
2018-05-29T04:17:47.556Z,98551.23
2018-05-29T04:20:15.093Z,98558.16
2018-05-29T04:22:42.584Z,98555.34
2018-05-29T04:25:10.087Z,98552.41
2018-05-29T04:27:37.570Z,98546.64
2018-05-29T04:30:05.031Z,98554.88
2018-05-29T04:32:32.527Z,98551.80
2018-05-29T04:34:59.987Z,98549.36
2018-05-29T04:37:27.492Z,98552.95
2018-05-29T04:39:54.966Z,98553.37
2018-05-29T04:42:22.458Z,98546.96
2018-05-29T04:44:49.930Z,98556.22
2018-05-29T04:47:17.415Z,98557.97
2018-05-29T04:49:44.988Z,98559.95
2018-05-29T04:52:12.485Z,98556.20
2018-05-29T04:54:39.963Z,98559.30
2018-05-29T04:57:07.455Z,98560.26
2018-05-29T04:59:34.923Z,98554.63
2018-05-29T05:02:02.479Z,98568.91
2018-05-29T05:04:29.942Z,98563.59
2018-05-29T05:06:57.433Z,98555.73
2018-05-29T05:09:24.903Z,98552.30
2018-05-29T05:11:52.367Z,98551.00
2018-05-29T05:14:19.898Z,98554.83
2018-05-29T05:16:47.368Z,98550.64
2018-05-29T05:19:14.866Z,98554.63
2018-05-29T05:21:42.326Z,98559.69
2018-05-29T05:24:09.886Z,98565.70
2018-05-29T05:26:37.455Z,98570.95
2018-05-29T05:29:04.938Z,98569.76
2018-05-29T05:31:32.403Z,98578.30
2018-05-29T05:33:59.902Z,98584.11
2018-05-29T05:36:27.446Z,98585.38
2018-05-29T05:38:54.925Z,98578.97
2018-05-29T05:41:22.385Z,98591.16
2018-05-29T05:43:49.958Z,98592.09
2018-05-29T05:46:17.535Z,98593.44
2018-05-29T05:48:45.089Z,98602.14
2018-05-29T05:51:12.610Z,98601.78
2018-05-29T05:53:40.194Z,98603.73
2018-05-29T05:56:07.753Z,98606.27
2018-05-29T05:58:35.301Z,98602.28
2018-05-29T06:01:02.783Z,98597.23
2018-05-29T06:03:30.265Z,98600.95
2018-05-29T06:05:57.722Z,98592.34
2018-05-29T06:08:25.202Z,98590.13
2018-05-29T06:10:52.685Z,98591.47
2018-05-29T06:13:20.174Z,98595.11
2018-05-29T06:15:47.702Z,98598.75
2018-05-29T06:18:15.188Z,98598.51
2018-05-29T06:20:42.674Z,98595.12
2018-05-29T06:23:10.173Z,98589.77
2018-05-29T06:25:37.630Z,98590.98
2018-05-29T06:28:05.125Z,98589.69
2018-05-29T06:30:32.586Z,98589.70
2018-05-29T06:33:00.171Z,98596.73
2018-05-29T06:35:27.640Z,98601.80
2018-05-29T06:37:55.131Z,98604.58
2018-05-29T06:40:22.595Z,98603.14
2018-05-29T06:42:50.118Z,98609.16
2018-05-29T06:45:17.599Z,98614.13
2018-05-29T06:47:45.112Z,98612.11
2018-05-29T06:50:12.586Z,98611.42
2018-05-29T06:52:40.052Z,98607.79
2018-05-29T06:55:07.577Z,98612.53
2018-05-29T06:57:35.072Z,98607.11
2018-05-29T07:00:02.587Z,98612.93
2018-05-29T07:02:30.068Z,98615.80
2018-05-29T07:04:57.699Z,98617.02
2018-05-29T07:07:25.255Z,98621.55
2018-05-29T07:09:52.748Z,98612.86
2018-05-29T07:12:20.213Z,98617.09
2018-05-29T07:14:47.734Z,98613.87
2018-05-29T07:17:15.329Z,98612.94
2018-05-29T07:19:42.831Z,98605.19
2018-05-29T07:22:10.300Z,98604.07
2018-05-29T07:24:37.823Z,98601.81
2018-05-29T07:27:05.278Z,98601.95
2018-05-29T07:29:32.779Z,98603.94
2018-05-29T07:32:00.258Z,98609.19
2018-05-29T07:34:27.759Z,98600.89
2018-05-29T07:36:55.239Z,98607.16
2018-05-29T07:39:22.814Z,98603.80
2018-05-29T07:41:50.314Z,98604.13
2018-05-29T07:44:17.808Z,98610.45
2018-05-29T07:46:45.271Z,98610.70
2018-05-29T07:49:12.855Z,98601.78
2018-05-29T07:51:40.314Z,98599.69
2018-05-29T07:54:08.078Z,98602.20
2018-05-29T07:56:35.603Z,98600.91
2018-05-29T07:59:04.030Z,98600.11
2018-05-29T08:01:31.519Z,98612.06
2018-05-29T08:03:59.083Z,98609.52
2018-05-29T08:06:26.606Z,98611.45
2018-05-29T08:08:54.095Z,98617.38
2018-05-29T08:11:21.573Z,98613.84
2018-05-29T08:13:49.266Z,98619.38
2018-05-29T08:16:16.730Z,98620.45
2018-05-29T08:18:44.291Z,98631.17
2018-05-29T08:21:11.795Z,98625.30
2018-05-29T08:23:39.287Z,98623.69
2018-05-29T08:26:06.776Z,98628.83
2018-05-29T08:28:34.276Z,98628.16
2018-05-29T08:31:01.812Z,98623.69
2018-05-29T08:33:29.339Z,98624.70
2018-05-29T08:35:56.822Z,98620.22
2018-05-29T08:38:24.293Z,98622.55
2018-05-29T08:40:51.787Z,98629.73
2018-05-29T08:43:19.249Z,98631.51
2018-05-29T08:45:46.742Z,98629.32
2018-05-29T08:48:14.231Z,98625.56
2018-05-29T08:50:41.793Z,98626.59
2018-05-29T08:53:09.592Z,98626.22
2018-05-29T08:55:37.088Z,98621.45
2018-05-29T08:58:04.565Z,98625.78
2018-05-29T09:00:32.095Z,98622.19
2018-05-29T09:02:59.690Z,98617.66
2018-05-29T09:05:27.193Z,98621.47
2018-05-29T09:07:54.663Z,98619.02
2018-05-29T09:10:22.165Z,98616.91
2018-05-29T09:12:49.636Z,98613.41
2018-05-29T09:15:17.139Z,98614.70
2018-05-29T09:17:44.615Z,98610.73
2018-05-29T09:20:12.127Z,98612.41
2018-05-29T09:22:39.662Z,98609.41
2018-05-29T09:25:07.171Z,98603.54
2018-05-29T09:27:34.660Z,98606.55
2018-05-29T09:30:02.308Z,98611.66
2018-05-29T09:32:29.839Z,98600.97
2018-05-29T09:34:57.332Z,98605.73
2018-05-29T09:37:24.924Z,98602.99
2018-05-29T09:39:52.387Z,98598.25
2018-05-29T09:42:19.891Z,98600.53
2018-05-29T09:44:47.421Z,98599.38
2018-05-29T09:47:15.847Z,98599.69
2018-05-29T09:49:43.391Z,98598.13
2018-05-29T09:52:10.882Z,98594.23
2018-05-29T09:54:38.411Z,98594.99
2018-05-29T09:57:05.891Z,98595.15
2018-05-29T09:59:33.484Z,98594.23
2018-05-29T10:02:01.138Z,98595.06
2018-05-29T10:04:28.653Z,98587.18
2018-05-29T10:06:56.297Z,98582.33
2018-05-29T10:09:23.876Z,98579.03
2018-05-29T10:11:51.441Z,98579.59
2018-05-29T10:14:19.408Z,98567.48
2018-05-29T10:16:46.943Z,98567.26
2018-05-29T10:19:14.432Z,98579.98
2018-05-29T10:21:41.999Z,98578.06
2018-05-29T10:24:09.564Z,98576.72
2018-05-29T10:26:37.059Z,98576.15
2018-05-29T10:29:04.540Z,98576.97
2018-05-29T10:31:32.326Z,98570.75
2018-05-29T10:33:59.820Z,98570.73
2018-05-29T10:36:27.347Z,98566.13
2018-05-29T10:38:54.811Z,98560.76
2018-05-29T10:41:22.475Z,98560.70
2018-05-29T10:43:49.955Z,98550.58
2018-05-29T10:46:17.497Z,98548.88
2018-05-29T10:48:45.034Z,98548.90
2018-05-29T10:51:12.530Z,98551.60
2018-05-29T10:53:39.998Z,98551.89
2018-05-29T10:56:07.523Z,98547.44
2018-05-29T10:58:35.105Z,98550.61
2018-05-29T11:01:02.662Z,98553.39
2018-05-29T11:03:30.152Z,98551.71
2018-05-29T11:05:57.671Z,98544.55
2018-05-29T11:08:25.152Z,98551.04
2018-05-29T11:10:52.651Z,98544.58
2018-05-29T11:13:20.149Z,98544.44
2018-05-29T11:15:47.635Z,98543.30
2018-05-29T11:18:15.118Z,98535.76
2018-05-29T11:20:42.643Z,98536.42
2018-05-29T11:23:10.171Z,98535.53
2018-05-29T11:25:37.655Z,98533.94
2018-05-29T11:28:05.272Z,98531.95
2018-05-29T11:30:32.827Z,98530.95
2018-05-29T11:33:00.357Z,98529.30
2018-05-29T11:35:27.825Z,98530.74
2018-05-29T11:37:55.325Z,98530.63
2018-05-29T11:40:22.800Z,98531.55
2018-05-29T11:42:50.332Z,98533.34
2018-05-29T11:45:17.806Z,98534.51
2018-05-29T11:47:45.360Z,98535.59
2018-05-29T11:50:12.854Z,98534.19
2018-05-29T11:52:40.352Z,98522.58
2018-05-29T11:55:07.821Z,98525.05
2018-05-29T11:57:35.313Z,98515.00
2018-05-29T12:00:02.835Z,98506.87
2018-05-29T12:02:30.396Z,98512.16
2018-05-29T12:04:57.956Z,98518.28
2018-05-29T12:07:25.514Z,98511.38
2018-05-29T12:09:53.071Z,98506.38
2018-05-29T12:12:27.190Z,98506.36
2018-05-29T12:14:54.756Z,98498.84
2018-05-29T12:17:22.282Z,98495.48
2018-05-29T12:19:49.757Z,98495.92
2018-05-29T12:22:17.276Z,98484.80
2018-05-29T12:24:44.750Z,98481.49
2018-05-29T12:27:12.239Z,98484.01
2018-05-29T12:29:39.702Z,98482.17
2018-05-29T12:32:07.204Z,98481.05
2018-05-29T12:34:34.679Z,98472.75
2018-05-29T12:37:02.178Z,98478.14
2018-05-29T12:39:29.664Z,98467.91
2018-05-29T12:41:57.196Z,98471.53
2018-05-29T12:44:24.679Z,98470.11
2018-05-29T12:46:52.209Z,98472.19
2018-05-29T12:49:19.767Z,98470.11
2018-05-29T12:51:47.255Z,98467.19
2018-05-29T12:54:14.723Z,98467.02
2018-05-29T12:56:42.211Z,98470.50
2018-05-29T12:59:09.699Z,98465.38
2018-05-29T13:01:37.263Z,98459.17
2018-05-29T13:04:04.827Z,98450.45
2018-05-29T13:06:32.340Z,98447.78
2018-05-29T13:08:59.831Z,98447.81
2018-05-29T13:11:27.335Z,98443.16
2018-05-29T13:13:54.821Z,98440.45
2018-05-29T13:16:22.286Z,98444.57
2018-05-29T13:18:49.855Z,98443.03
2018-05-29T13:21:17.315Z,98443.70
2018-05-29T13:23:44.803Z,98435.77
2018-05-29T13:26:12.261Z,98433.86
2018-05-29T13:28:39.789Z,98430.37
2018-05-29T13:31:07.366Z,98426.97
2018-05-29T13:33:34.859Z,98425.88
2018-05-29T13:36:02.388Z,98422.55
2018-05-29T13:38:29.877Z,98414.75
2018-05-29T13:40:57.342Z,98408.16
2018-05-29T13:43:24.868Z,98406.28
2018-05-29T13:45:52.427Z,98416.41
2018-05-29T13:48:19.918Z,98405.83
2018-05-29T13:50:47.403Z,98410.20
2018-05-29T13:53:15.000Z,98404.93
2018-05-29T13:55:42.556Z,98401.62
2018-05-29T13:58:10.115Z,98397.75
2018-05-29T14:00:37.587Z,98397.11
2018-05-29T14:03:05.083Z,98389.44
2018-05-29T14:05:32.566Z,98381.42
2018-05-29T14:08:00.186Z,98388.80
2018-05-29T14:10:27.674Z,98386.48
2018-05-29T14:12:55.267Z,98378.97
2018-05-29T14:15:22.800Z,98381.73
2018-05-29T14:17:50.304Z,98372.41
2018-05-29T14:20:17.771Z,98378.92
2018-05-29T14:22:45.312Z,98363.30
2018-05-29T14:25:12.865Z,98360.67
2018-05-29T14:27:40.347Z,98359.94
2018-05-29T14:30:07.879Z,98359.43
2018-05-29T14:32:35.442Z,98358.45
2018-05-29T14:35:02.918Z,98360.19
2018-05-29T14:37:30.410Z,98357.42
2018-05-29T14:39:57.884Z,98350.25
2018-05-29T14:42:25.393Z,98348.11
2018-05-29T14:44:52.944Z,98338.47
2018-05-29T14:47:20.425Z,98335.57
2018-05-29T14:49:47.941Z,98328.09
2018-05-29T14:52:15.430Z,98323.85
2018-05-29T14:54:42.926Z,98331.47
2018-05-29T14:57:10.412Z,98324.17
2018-05-29T14:59:38.023Z,98316.09
2018-05-29T15:02:05.635Z,98308.57
2018-05-29T15:04:33.157Z,98313.12
2018-05-29T15:07:00.655Z,98312.66
2018-05-29T15:09:28.155Z,98309.13
2018-05-29T15:11:55.649Z,98298.33
2018-05-29T15:14:23.157Z,98300.94
2018-05-29T15:16:50.634Z,98293.87
2018-05-29T15:19:18.164Z,98289.93
2018-05-29T15:21:45.635Z,98290.65
2018-05-29T15:24:13.129Z,98285.16
2018-05-29T15:26:40.627Z,98288.73
2018-05-29T15:29:08.125Z,98284.38
2018-05-29T15:31:35.668Z,98278.76
2018-05-29T15:34:03.219Z,98275.83
2018-05-29T15:36:30.682Z,98268.27
2018-05-29T15:38:58.170Z,98271.93
2018-05-29T15:41:25.666Z,98266.09
2018-05-29T15:43:53.159Z,98263.45
2018-05-29T15:46:20.671Z,98261.91
2018-05-29T15:48:48.158Z,98264.72
2018-05-29T15:51:15.742Z,98269.73
2018-05-29T15:53:46.608Z,98258.84
2018-05-29T15:56:14.160Z,98254.22
2018-05-29T15:58:41.662Z,98255.77
2018-05-29T16:01:09.311Z,98251.95
2018-05-29T16:03:36.935Z,98240.61
2018-05-29T16:06:04.407Z,98237.71
2018-05-29T16:08:31.964Z,98232.47
2018-05-29T16:10:59.443Z,98238.22
2018-05-29T16:13:26.947Z,98242.23
2018-05-29T16:15:54.496Z,98237.35
2018-05-29T16:18:22.003Z,98240.09
2018-05-29T16:20:50.343Z,98240.31
2018-05-29T16:23:17.810Z,98232.92
2018-05-29T16:25:49.755Z,98232.97
2018-05-29T16:28:21.527Z,98228.38
2018-05-29T16:30:50.062Z,98231.95
2018-05-29T16:33:17.577Z,98232.31
2018-05-29T16:35:45.059Z,98227.45
2018-05-29T16:38:18.202Z,98221.82
2018-05-29T16:40:50.812Z,98222.50
2018-05-29T16:43:19.589Z,98220.54
2018-05-29T16:45:48.797Z,98221.43
2018-05-29T16:48:18.090Z,98224.19
2018-05-29T16:50:45.656Z,98224.60
2018-05-29T16:53:13.126Z,98227.82
2018-05-29T16:55:40.621Z,98220.31
2018-05-29T16:58:08.164Z,98209.45
2018-05-29T17:00:35.656Z,98199.08
2018-05-29T17:03:09.788Z,98197.00
2018-05-29T17:05:44.629Z,98192.36
2018-05-29T17:08:12.264Z,98192.52
2018-05-29T17:10:39.783Z,98188.82
2018-05-29T17:13:07.347Z,98187.81
2018-05-29T17:15:34.906Z,98198.34
2018-05-29T17:18:02.416Z,98205.77
2018-05-29T17:20:29.912Z,98200.36
2018-05-29T17:22:57.502Z,98197.80
2018-05-29T17:25:30.790Z,98194.94
2018-05-29T17:28:06.778Z,98198.80
2018-05-29T17:30:34.332Z,98192.87
2018-05-29T17:33:01.819Z,98198.01
2018-05-29T17:35:29.484Z,98187.55
2018-05-29T17:37:56.973Z,98192.77
2018-05-29T17:40:24.482Z,98192.45
2018-05-29T17:42:51.983Z,98190.17
2018-05-29T17:45:19.489Z,98192.55
2018-05-29T17:47:47.153Z,98195.98
2018-05-29T17:50:14.643Z,98195.06
2018-05-29T17:52:42.145Z,98196.70
2018-05-29T17:55:09.677Z,98203.80
2018-05-29T17:57:37.167Z,98193.75
2018-05-29T18:00:04.663Z,98196.00
2018-05-29T18:02:32.158Z,98202.39
2018-05-29T18:04:59.651Z,98201.33
2018-05-29T18:07:27.148Z,98205.75
2018-05-29T18:09:54.639Z,98207.95
2018-05-29T18:12:22.105Z,98201.30
2018-05-29T18:14:49.649Z,98202.07
2018-05-29T18:17:17.210Z,98205.58
2018-05-29T18:19:44.725Z,98197.80
2018-05-29T18:22:12.241Z,98209.89
2018-05-29T18:24:39.711Z,98207.26
2018-05-29T18:27:07.208Z,98214.69
2018-05-29T18:29:34.682Z,98210.53
2018-05-29T18:32:02.173Z,98212.69
2018-05-29T18:34:29.649Z,98221.00
2018-05-29T18:36:57.133Z,98222.23
2018-05-29T18:39:24.617Z,98226.77
2018-05-29T18:41:52.174Z,98229.98
2018-05-29T18:44:19.650Z,98232.70
2018-05-29T18:46:47.230Z,98228.98
2018-05-29T18:49:14.789Z,98228.59
2018-05-29T18:51:42.331Z,98224.13
2018-05-29T18:54:09.819Z,98224.87
2018-05-29T18:56:37.317Z,98238.91
2018-05-29T18:59:04.802Z,98245.57
2018-05-29T19:01:32.296Z,98248.98
2018-05-29T19:03:59.767Z,98254.49
2018-05-29T19:06:27.276Z,98267.54
2018-05-29T19:08:54.772Z,98276.77
2018-05-29T19:11:22.266Z,98287.70
2018-05-29T19:13:49.750Z,98288.56
2018-05-29T19:16:17.262Z,98296.53
2018-05-29T19:18:44.763Z,98300.69
2018-05-29T19:21:12.258Z,98297.42
2018-05-29T19:23:39.722Z,98308.27
2018-05-29T19:26:07.247Z,98310.42
2018-05-29T19:28:34.718Z,98329.97
2018-05-29T19:31:02.206Z,98340.69
2018-05-29T19:33:29.674Z,98367.05
2018-05-29T19:35:57.187Z,98362.65
2018-05-29T19:38:24.706Z,98356.16
2018-05-29T19:40:52.372Z,98353.22
2018-05-29T19:43:19.838Z,98343.70
2018-05-29T19:45:47.346Z,98344.26
2018-05-29T19:48:14.809Z,98337.14
2018-05-29T19:50:42.358Z,98337.88
2018-05-29T19:53:09.892Z,98335.38
2018-05-29T19:55:37.390Z,98335.08
2018-05-29T19:58:04.871Z,98340.60
2018-05-29T20:00:32.403Z,98340.18
2018-05-29T20:02:59.898Z,98346.02
2018-05-29T20:05:27.378Z,98341.23
2018-05-29T20:07:54.861Z,98335.41
2018-05-29T20:10:22.334Z,98331.13
2018-05-29T20:12:49.890Z,98321.85
2018-05-29T20:15:17.470Z,98325.49
2018-05-29T20:17:45.051Z,98324.84
2018-05-29T20:20:12.523Z,98317.37
2018-05-29T20:22:40.014Z,98310.53
2018-05-29T20:25:07.503Z,98311.36
2018-05-29T20:27:35.055Z,98318.09
2018-05-29T20:30:02.542Z,98316.15
2018-05-29T20:32:30.101Z,98311.94
2018-05-29T20:34:57.642Z,98317.21
2018-05-29T20:37:25.141Z,98322.39
2018-05-29T20:39:52.622Z,98323.71
2018-05-29T20:42:20.127Z,98325.42
2018-05-29T20:44:47.603Z,98328.02
2018-05-29T20:47:15.131Z,98323.01
2018-05-29T20:49:42.606Z,98318.68
2018-05-29T20:52:10.119Z,98320.69
2018-05-29T20:54:37.881Z,98309.43
2018-05-29T20:57:05.467Z,98309.28
2018-05-29T20:59:32.944Z,98318.44
2018-05-29T21:02:00.435Z,98319.55
2018-05-29T21:04:27.926Z,98321.03
2018-05-29T21:06:55.435Z,98326.08
2018-05-29T21:09:22.920Z,98326.64
2018-05-29T21:11:50.410Z,98328.77
2018-05-29T21:14:17.872Z,98329.09
2018-05-29T21:16:45.366Z,98326.98
2018-05-29T21:19:12.887Z,98325.19
2018-05-29T21:21:40.442Z,98330.03
2018-05-29T21:24:07.937Z,98331.11
2018-05-29T21:26:35.408Z,98332.45
2018-05-29T21:29:02.920Z,98333.31
2018-05-29T21:31:30.385Z,98335.11
2018-05-29T21:33:57.867Z,98338.98
2018-05-29T21:36:25.374Z,98345.67
2018-05-29T21:38:52.866Z,98347.37
2018-05-29T21:41:20.454Z,98343.39
2018-05-29T21:43:47.967Z,98341.80
2018-05-29T21:46:15.461Z,98343.95
2018-05-29T21:48:43.063Z,98339.09
2018-05-29T21:51:10.590Z,98345.03
2018-05-29T21:53:38.129Z,98338.64
2018-05-29T21:56:05.609Z,98344.23
2018-05-29T21:58:33.188Z,98344.36
2018-05-29T22:01:00.754Z,98339.28
2018-05-29T22:03:29.195Z,98345.67
2018-05-29T22:05:57.169Z,98352.80
2018-05-29T22:08:24.724Z,98357.14
2018-05-29T22:10:52.282Z,98354.75
2018-05-29T22:13:19.776Z,98344.88
2018-05-29T22:15:47.958Z,98345.45
2018-05-29T22:18:15.442Z,98339.44
2018-05-29T22:20:42.907Z,98338.20
2018-05-29T22:23:10.408Z,98345.09
2018-05-29T22:25:37.891Z,98349.48
2018-05-29T22:28:05.503Z,98342.38
2018-05-29T22:30:33.054Z,98340.05
2018-05-29T22:33:00.665Z,98346.52
2018-05-29T22:35:28.143Z,98345.95
2018-05-29T22:37:55.647Z,98340.83
2018-05-29T22:40:23.217Z,98350.62
2018-05-29T22:42:50.686Z,98346.14
2018-05-29T22:45:18.218Z,98346.46
2018-05-29T22:47:45.687Z,98349.68
2018-05-29T22:50:13.172Z,98354.46
2018-05-29T22:52:40.761Z,98356.66
2018-05-29T22:55:08.251Z,98361.17
2018-05-29T22:57:35.819Z,98360.51
2018-05-29T23:00:03.377Z,98359.52
2018-05-29T23:02:30.934Z,98366.88
2018-05-29T23:04:58.490Z,98367.92
2018-05-29T23:07:26.014Z,98377.33
2018-05-29T23:09:53.508Z,98378.12
2018-05-29T23:12:20.971Z,98383.84
2018-05-29T23:14:48.530Z,98384.69
2018-05-29T23:17:15.996Z,98386.48
2018-05-29T23:19:43.531Z,98383.73
2018-05-29T23:22:10.994Z,98382.31
2018-05-29T23:24:38.521Z,98389.80
2018-05-29T23:27:06.003Z,98386.06
2018-05-29T23:29:33.521Z,98397.17
2018-05-29T23:32:01.002Z,98392.17
2018-05-29T23:34:28.487Z,98393.21
2018-05-29T23:36:55.969Z,98395.15
2018-05-29T23:39:23.534Z,98385.89
2018-05-29T23:41:51.071Z,98388.34
2018-05-29T23:44:18.630Z,98383.66
2018-05-29T23:46:46.211Z,98378.53
2018-05-29T23:49:13.753Z,98381.70
2018-05-29T23:51:41.237Z,98381.12
2018-05-29T23:54:08.815Z,98385.72
2018-05-29T23:56:36.326Z,98384.05
2018-05-29T23:59:03.794Z,98390.98
